Airport ID:7S0
Update Time (UTC):31/10/2020 22:12
Wind Speed (Knots):6
Wind Direction (Magnetic):160
Temperature (°C):10.4
Dew Point (°C):-3.7
Humidity (%):38.8
Altimeter (inHg):30.36
Density Altitude (Feet):
Visibility (Miles):10
Clouds (Hundreds of feet):***
Present Weather:
METAR:METAR 7S0 312210Z AUTO 18006KT 10SM 10/M04 A3036 RMK A01

The data displayed is for advisory purposes only and is not to be used for flight planning or operations.